createdAt,value
2019-04-04T03:01:03.756Z,94.80
2019-04-04T03:03:32.402Z,94.60
2019-04-04T03:06:01.068Z,94.50
2019-04-04T03:08:29.651Z,94.70
2019-04-04T03:10:58.223Z,94.60
2019-04-04T03:13:31.287Z,94.70
2019-04-04T03:15:57.071Z,94.60
2019-04-04T03:18:25.650Z,94.60
2019-04-04T03:20:54.199Z,94.50
2019-04-04T03:23:22.759Z,94.40
2019-04-04T03:25:51.389Z,94.50
2019-04-04T03:28:20.067Z,94.50
2019-04-04T03:30:58.106Z,94.40
2019-04-04T03:33:19.253Z,94.40
2019-04-04T03:35:48.139Z,94.50
2019-04-04T03:38:16.721Z,94.60
2019-04-04T03:40:45.283Z,94.60
2019-04-04T03:43:16.004Z,94.40
2019-04-04T03:45:44.439Z,94.40
2019-04-04T03:48:16.976Z,94.40
2019-04-04T03:50:43.274Z,94.40
2019-04-04T03:53:16.310Z,94.50
2019-04-04T03:55:42.132Z,94.40
2019-04-04T03:58:10.694Z,94.50
2019-04-04T04:00:40.456Z,94.60
2019-04-04T04:03:09.622Z,94.70
2019-04-04T04:05:57.487Z,95.10
2019-04-04T04:08:26.161Z,94.70
2019-04-04T04:10:54.715Z,94.90
2019-04-04T04:13:23.286Z,94.90
2019-04-04T04:15:51.877Z,95.00
2019-04-04T04:18:21.745Z,95.10
2019-04-04T04:20:50.898Z,95.20
2019-04-04T04:23:23.009Z,95.20
2019-04-04T04:25:49.764Z,95.10
2019-04-04T04:28:20.137Z,95.20
2019-04-04T04:30:48.992Z,95.10
2019-04-04T04:33:17.727Z,95.10
2019-04-04T04:35:46.319Z,95.20
2019-04-04T04:38:15.490Z,95.30
2019-04-04T04:40:46.849Z,95.30
2019-04-04T04:43:15.747Z,95.20
2019-04-04T04:45:45.241Z,95.30
2019-04-04T04:48:13.931Z,95.20
2019-04-04T04:50:42.779Z,95.10
2019-04-04T04:53:11.422Z,95.20
2019-04-04T04:55:40.299Z,95.20
2019-04-04T04:58:10.459Z,95.20
2019-04-04T05:00:39.162Z,95.10
2019-04-04T05:03:07.718Z,95.30
2019-04-04T05:05:36.286Z,95.30
2019-04-04T05:08:04.919Z,95.40
2019-04-04T05:10:33.490Z,95.30
2019-04-04T05:13:02.059Z,95.30
2019-04-04T05:15:32.394Z,95.20
2019-04-04T05:18:00.914Z,95.30
2019-04-04T05:20:29.768Z,95.40
2019-04-04T05:22:58.538Z,95.40
2019-04-04T05:25:27.094Z,95.30
2019-04-04T05:27:55.670Z,95.40
2019-04-04T05:30:24.228Z,95.30
2019-04-04T05:32:56.230Z,95.20
2019-04-04T05:35:23.393Z,95.20
2019-04-04T05:37:51.973Z,95.10
2019-04-04T05:40:23.227Z,95.10
2019-04-04T05:42:50.926Z,95.20
2019-04-04T05:45:19.542Z,95.20
2019-04-04T05:47:48.122Z,95.10
2019-04-04T05:50:16.790Z,95.20
2019-04-04T05:52:45.393Z,95.20
2019-04-04T05:55:13.942Z,95.20
2019-04-04T05:57:42.497Z,95.00
2019-04-04T06:00:13.408Z,95.10
2019-04-04T06:02:43.297Z,95.10
2019-04-04T06:05:12.268Z,95.10
2019-04-04T06:07:41.171Z,95.10
2019-04-04T06:10:11.983Z,95.20
2019-04-04T06:12:40.403Z,95.20
2019-04-04T06:15:08.962Z,95.20
2019-04-04T06:17:39.281Z,95.20
2019-04-04T06:20:09.067Z,95.10
2019-04-04T06:22:37.618Z,94.80
2019-04-04T06:25:06.597Z,94.60
2019-04-04T06:27:35.143Z,94.40
2019-04-04T06:30:04.038Z,94.10
2019-04-04T06:32:32.602Z,93.90
2019-04-04T06:35:01.160Z,93.90
2019-04-04T06:37:29.743Z,93.70
2019-04-04T06:39:58.835Z,93.40
2019-04-04T06:42:28.182Z,93.00
2019-04-04T06:44:56.771Z,93.20
2019-04-04T06:47:26.292Z,92.60
2019-04-04T06:49:54.994Z,92.60
2019-04-04T06:52:23.643Z,92.50
2019-04-04T06:54:52.252Z,92.30
2019-04-04T06:57:20.914Z,92.10
2019-04-04T06:59:51.158Z,92.30
2019-04-04T07:02:19.783Z,92.30
2019-04-04T07:04:48.626Z,92.30
2019-04-04T07:07:17.206Z,92.30
2019-04-04T07:09:46.082Z,92.10
2019-04-04T07:12:22.390Z,92.00
2019-04-04T07:14:47.032Z,92.00
2019-04-04T07:17:16.441Z,91.60
2019-04-04T07:19:46.179Z,91.30
2019-04-04T07:22:15.750Z,90.80
2019-04-04T07:24:44.378Z,90.50
2019-04-04T07:27:14.191Z,90.10
2019-04-04T07:29:43.268Z,88.20
2019-04-04T07:32:11.836Z,83.40
2019-04-04T07:34:40.390Z,79.70
2019-04-04T07:37:08.991Z,72.80
2019-04-04T07:39:37.566Z,70.20
2019-04-04T07:42:06.154Z,66.00
2019-04-04T07:44:34.738Z,62.20
2019-04-04T07:47:03.302Z,59.80
2019-04-04T07:49:31.870Z,58.20
2019-04-04T07:52:01.978Z,55.90
2019-04-04T07:54:32.082Z,55.00
2019-04-04T07:57:00.778Z,53.30
2019-04-04T07:59:31.119Z,52.90
2019-04-04T08:01:59.818Z,52.70
2019-04-04T08:04:28.387Z,52.40
2019-04-04T08:06:56.978Z,52.90
2019-04-04T08:09:26.371Z,52.10
2019-04-04T08:11:55.027Z,51.60
2019-04-04T08:14:23.610Z,50.70
2019-04-04T08:16:52.453Z,50.00
2019-04-04T08:19:21.014Z,50.50
2019-04-04T08:21:49.607Z,51.60
2019-04-04T08:24:18.507Z,51.60
2019-04-04T08:26:47.411Z,51.80
2019-04-04T08:29:15.997Z,50.80
2019-04-04T08:31:44.854Z,51.10
2019-04-04T08:34:13.411Z,51.50
2019-04-04T08:36:41.995Z,52.70
2019-04-04T08:39:12.302Z,53.20
2019-04-04T08:41:40.886Z,54.10
2019-04-04T08:44:09.506Z,55.10
2019-04-04T08:46:38.950Z,55.70
2019-04-04T08:49:07.526Z,56.10
2019-04-04T08:51:36.426Z,56.30
2019-04-04T08:54:04.986Z,57.20
2019-04-04T08:56:33.550Z,57.80
2019-04-04T08:59:02.200Z,57.30
2019-04-04T09:01:30.746Z,57.70
2019-04-04T09:03:59.324Z,57.00
2019-04-04T09:06:27.911Z,54.00
2019-04-04T09:08:56.467Z,50.90
2019-04-04T09:11:25.025Z,47.40
2019-04-04T09:13:53.603Z,45.00
2019-04-04T09:16:22.259Z,45.00
2019-04-04T09:18:50.821Z,44.00
2019-04-04T09:21:19.414Z,42.90
2019-04-04T09:23:47.966Z,43.60
2019-04-04T09:26:16.532Z,45.10
2019-04-04T09:28:45.122Z,46.30
2019-04-04T09:31:13.683Z,46.50
2019-04-04T09:33:42.247Z,47.40
2019-04-04T09:36:10.826Z,47.50
2019-04-04T09:38:39.391Z,47.90
2019-04-04T09:41:07.953Z,48.80
2019-04-04T09:43:36.584Z,49.40
2019-04-04T09:46:05.140Z,48.20
2019-04-04T09:48:33.719Z,49.60
2019-04-04T09:51:02.343Z,50.10
2019-04-04T09:53:30.912Z,51.80
2019-04-04T09:55:59.478Z,52.30
2019-04-04T09:58:28.079Z,53.20
2019-04-04T10:00:56.664Z,53.20
2019-04-04T10:03:25.522Z,53.60
2019-04-04T10:05:54.197Z,53.30
2019-04-04T10:08:22.834Z,51.80
2019-04-04T10:10:51.394Z,54.20
2019-04-04T10:13:19.995Z,55.00
2019-04-04T10:15:48.554Z,53.90
2019-04-04T10:18:17.131Z,53.40
2019-04-04T10:20:45.728Z,50.50
2019-04-04T10:23:14.301Z,48.60
2019-04-04T10:25:42.988Z,46.10
2019-04-04T10:28:11.578Z,45.90
2019-04-04T10:30:40.150Z,45.10
2019-04-04T10:33:09.027Z,43.70
2019-04-04T10:35:37.974Z,43.10
2019-04-04T10:38:06.548Z,44.50
2019-04-04T10:40:35.204Z,45.20
2019-04-04T10:43:03.781Z,45.90
2019-04-04T10:45:32.435Z,44.30
2019-04-04T10:48:01.002Z,43.80
2019-04-04T10:50:29.590Z,42.30
2019-04-04T10:52:58.795Z,41.50
2019-04-04T10:55:27.339Z,42.70
2019-04-04T10:57:56.117Z,44.60
2019-04-04T11:00:24.676Z,47.10
2019-04-04T11:02:53.319Z,49.10
2019-04-04T11:05:21.893Z,49.70
2019-04-04T11:07:50.538Z,50.70
2019-04-04T11:10:19.110Z,47.40
2019-04-04T11:12:47.698Z,47.30
2019-04-04T11:15:16.261Z,48.40
2019-04-04T11:17:44.870Z,50.30
2019-04-04T11:20:14.143Z,50.00
2019-04-04T11:22:42.706Z,50.40
2019-04-04T11:25:11.282Z,51.90
2019-04-04T11:27:39.935Z,51.10
2019-04-04T11:30:09.586Z,50.60
2019-04-04T11:32:38.149Z,50.20
2019-04-04T11:35:06.867Z,50.30
2019-04-04T11:37:35.439Z,49.70
2019-04-04T11:40:04.127Z,49.40
2019-04-04T11:42:32.714Z,50.20
2019-04-04T11:45:01.658Z,49.60
2019-04-04T11:47:30.243Z,47.30
2019-04-04T11:49:58.826Z,47.30
2019-04-04T11:52:27.397Z,46.80
2019-04-04T11:55:00.113Z,45.90
2019-04-04T11:57:28.698Z,48.20
2019-04-04T11:59:57.276Z,47.00
2019-04-04T12:02:27.559Z,47.90
2019-04-04T12:04:57.784Z,44.60
2019-04-04T12:07:26.608Z,42.40
2019-04-04T12:10:06.719Z,40.10
2019-04-04T12:12:25.590Z,39.70
2019-04-04T12:14:54.254Z,41.30
2019-04-04T12:17:22.818Z,38.70
2019-04-04T12:19:51.497Z,40.30
2019-04-04T12:22:20.079Z,39.10
2019-04-04T12:24:48.994Z,38.40
2019-04-04T12:27:17.687Z,37.00
2019-04-04T12:29:46.897Z,35.80
2019-04-04T12:32:15.550Z,35.50
2019-04-04T12:34:44.405Z,35.60
2019-04-04T12:37:12.968Z,36.40
2019-04-04T12:39:44.202Z,37.40
2019-04-04T12:42:11.842Z,39.10
2019-04-04T12:44:40.410Z,41.00
2019-04-04T12:47:09.327Z,39.70
2019-04-04T12:49:37.967Z,38.90
2019-04-04T12:52:06.906Z,40.80
2019-04-04T12:54:35.482Z,40.20
2019-04-04T12:57:04.265Z,40.00
2019-04-04T12:59:33.150Z,39.70
2019-04-04T13:02:01.838Z,40.10
2019-04-04T13:04:32.245Z,40.70
2019-04-04T13:07:01.014Z,41.50
2019-04-04T13:09:29.576Z,42.30
2019-04-04T13:11:58.167Z,41.50
2019-04-04T13:14:26.754Z,41.30
2019-04-04T13:16:55.570Z,40.50
2019-04-04T13:19:24.191Z,39.70
2019-04-04T13:21:52.761Z,38.40
2019-04-04T13:24:21.327Z,38.60
2019-04-04T13:26:49.922Z,38.10
2019-04-04T13:29:18.519Z,38.90
2019-04-04T13:31:47.098Z,40.40
2019-04-04T13:34:15.689Z,43.50
2019-04-04T13:36:44.364Z,44.80
2019-04-04T13:39:12.930Z,46.00
2019-04-04T13:41:41.520Z,46.00
2019-04-04T13:44:10.604Z,46.90
2019-04-04T13:46:39.181Z,48.30
2019-04-04T13:49:08.066Z,49.40
2019-04-04T13:51:36.964Z,49.10
2019-04-04T13:54:05.534Z,49.50
2019-04-04T13:56:34.226Z,50.60
2019-04-04T13:59:05.811Z,51.10
2019-04-04T14:01:33.441Z,51.70
2019-04-04T14:04:02.043Z,53.20
2019-04-04T14:06:30.626Z,54.00
2019-04-04T14:08:59.206Z,55.50
2019-04-04T14:11:27.795Z,55.80
2019-04-04T14:13:58.707Z,56.90
2019-04-04T14:16:26.983Z,57.00
2019-04-04T14:18:55.582Z,57.10
2019-04-04T14:21:24.170Z,57.00
2019-04-04T14:23:53.157Z,57.30
2019-04-04T14:26:22.191Z,58.60
2019-04-04T14:28:51.034Z,58.30
2019-04-04T14:31:19.603Z,58.20
2019-04-04T14:33:48.199Z,58.00
2019-04-04T14:36:16.758Z,59.10
2019-04-04T14:38:45.326Z,60.10
2019-04-04T14:41:13.918Z,60.50
2019-04-04T14:43:42.549Z,61.00
2019-04-04T14:46:11.127Z,61.40
2019-04-04T14:48:42.260Z,62.30
2019-04-04T14:51:10.299Z,63.30
2019-04-04T14:53:38.898Z,63.70
2019-04-04T14:56:07.477Z,64.10
2019-04-04T14:58:36.092Z,64.40
2019-04-04T15:01:04.692Z,65.50
2019-04-04T15:03:33.312Z,66.60
2019-04-04T15:06:02.134Z,67.90
2019-04-04T15:08:30.766Z,68.10
2019-04-04T15:10:59.334Z,68.40
2019-04-04T15:13:27.918Z,69.40
2019-04-04T15:16:15.558Z,70.80
2019-04-04T15:18:44.227Z,71.90
2019-04-04T15:21:12.798Z,72.70
2019-04-04T15:23:41.399Z,72.50
2019-04-04T15:26:10.277Z,73.80
2019-04-04T15:28:38.819Z,75.00
2019-04-04T15:31:07.407Z,76.30
2019-04-04T15:33:35.967Z,76.30
2019-04-04T15:36:04.526Z,76.80
2019-04-04T15:38:33.149Z,76.70
2019-04-04T15:41:01.719Z,77.50
2019-04-04T15:43:30.807Z,77.70
2019-04-04T15:45:59.517Z,77.20
2019-04-04T15:48:28.098Z,76.70
2019-04-04T15:50:56.763Z,77.10
2019-04-04T15:53:25.378Z,78.00
2019-04-04T15:55:54.018Z,79.30
2019-04-04T15:58:22.839Z,80.20
2019-04-04T16:00:51.475Z,80.70
2019-04-04T16:03:20.055Z,80.40
2019-04-04T16:05:48.698Z,81.30
2019-04-04T16:08:17.286Z,80.90
2019-04-04T16:10:45.876Z,81.20
2019-04-04T16:13:14.431Z,81.50
2019-04-04T16:15:43.345Z,81.90
2019-04-04T16:18:11.919Z,81.00
2019-04-04T16:20:40.517Z,80.50
2019-04-04T16:23:09.099Z,80.50
2019-04-04T16:25:37.655Z,80.70
2019-04-04T16:28:06.249Z,80.70
2019-04-04T16:30:34.867Z,80.60
2019-04-04T16:33:03.455Z,80.50
2019-04-04T16:35:32.018Z,80.00
2019-04-04T16:38:00.992Z,79.90
2019-04-04T16:40:29.590Z,80.20
2019-04-04T16:42:58.151Z,80.00
2019-04-04T16:45:26.714Z,80.10
2019-04-04T16:47:55.547Z,80.10
2019-04-04T16:50:24.223Z,80.80
2019-04-04T16:52:52.934Z,82.10
2019-04-04T16:55:21.522Z,81.50
2019-04-04T16:57:50.198Z,82.20
2019-04-04T17:00:20.882Z,82.70
2019-04-04T17:02:50.391Z,83.10
2019-04-04T17:05:18.970Z,84.50
2019-04-04T17:07:47.608Z,84.00
2019-04-04T17:10:17.851Z,84.60
2019-04-04T17:12:46.402Z,84.70
2019-04-04T17:15:15.247Z,84.80
2019-04-04T17:17:44.175Z,84.70
2019-04-04T17:20:34.258Z,85.10
2019-04-04T17:23:04.930Z,85.70
2019-04-04T17:25:33.687Z,86.00
2019-04-04T17:28:02.591Z,86.70
2019-04-04T17:30:31.396Z,87.70
2019-04-04T17:33:00.053Z,87.60
2019-04-04T17:35:28.663Z,88.10
2019-04-04T17:37:57.731Z,88.70
2019-04-04T17:40:26.405Z,89.20
2019-04-04T17:42:55.513Z,90.10
2019-04-04T17:45:24.202Z,90.10
2019-04-04T17:47:55.050Z,90.40
2019-04-04T17:50:24.088Z,90.50
2019-04-04T17:52:52.887Z,90.80
2019-04-04T17:55:21.922Z,90.80
2019-04-04T17:57:51.022Z,90.70
2019-04-04T18:00:20.771Z,91.10
2019-04-04T18:02:49.349Z,91.10
2019-04-04T18:05:17.975Z,91.10
2019-04-04T18:07:46.578Z,91.40
2019-04-04T18:10:34.707Z,91.30
2019-04-04T18:13:03.322Z,91.10
2019-04-04T18:15:32.136Z,91.10
2019-04-04T18:18:00.954Z,90.90
2019-04-04T18:20:29.570Z,90.90
2019-04-04T18:22:58.225Z,90.80
2019-04-04T18:25:26.810Z,90.80
2019-04-04T18:27:55.415Z,90.70
2019-04-04T18:30:23.963Z,90.70
2019-04-04T18:32:52.568Z,90.70
2019-04-04T18:35:21.152Z,90.80
2019-04-04T18:37:49.698Z,90.70
2019-04-04T18:40:18.271Z,91.40
2019-04-04T18:42:53.230Z,91.00
2019-04-04T18:45:17.244Z,91.00
2019-04-04T18:47:45.806Z,91.00
2019-04-04T18:50:14.434Z,91.00
2019-04-04T18:52:43.037Z,91.10
2019-04-04T18:55:19.529Z,91.30
2019-04-04T18:57:43.516Z,91.30
2019-04-04T19:00:12.326Z,91.40
2019-04-04T19:02:40.879Z,91.80
2019-04-04T19:05:09.434Z,91.40
2019-04-04T19:07:39.533Z,91.30
2019-04-04T19:10:08.461Z,91.40
2019-04-04T19:12:37.016Z,91.40
2019-04-04T19:15:07.781Z,91.50
2019-04-04T19:17:36.175Z,91.50
2019-04-04T19:20:05.620Z,91.60
2019-04-04T19:22:34.202Z,92.00
2019-04-04T19:25:02.839Z,91.80
2019-04-04T19:27:31.470Z,91.70
2019-04-04T19:30:00.131Z,92.00
2019-04-04T19:32:28.691Z,91.70
2019-04-04T19:34:57.252Z,91.80
2019-04-04T19:37:26.178Z,91.80
2019-04-04T19:39:54.749Z,91.90
2019-04-04T19:42:23.314Z,92.00
2019-04-04T19:44:53.480Z,92.00
2019-04-04T19:47:22.181Z,92.00
2019-04-04T19:49:50.738Z,92.00
2019-04-04T19:52:19.339Z,91.80
2019-04-04T19:54:47.906Z,91.90
2019-04-04T19:57:17.101Z,91.80
2019-04-04T19:59:45.733Z,91.90
2019-04-04T20:02:14.334Z,91.90
2019-04-04T20:04:42.894Z,91.90
2019-04-04T20:07:11.554Z,91.90
2019-04-04T20:09:40.219Z,92.10
2019-04-04T20:12:08.774Z,92.20
2019-04-04T20:14:37.362Z,92.20
2019-04-04T20:17:05.954Z,92.20
2019-04-04T20:19:34.879Z,92.20
2019-04-04T20:22:03.571Z,92.20
2019-04-04T20:24:32.326Z,92.40
2019-04-04T20:27:01.126Z,92.40
2019-04-04T20:29:29.727Z,92.40
2019-04-04T20:31:58.297Z,92.50
2019-04-04T20:34:26.853Z,92.60
2019-04-04T20:36:55.442Z,92.70
2019-04-04T20:39:24.011Z,93.10
2019-04-04T20:41:52.914Z,92.90
2019-04-04T20:44:21.502Z,92.80
2019-04-04T20:46:50.065Z,93.10
2019-04-04T20:49:18.626Z,92.90
2019-04-04T20:51:47.254Z,92.80
2019-04-04T20:54:15.799Z,92.80
2019-04-04T20:56:44.714Z,93.00
2019-04-04T20:59:13.371Z,92.90
2019-04-04T21:01:41.929Z,93.10
2019-04-04T21:04:11.410Z,93.00
2019-04-04T21:06:40.078Z,93.10
2019-04-04T21:09:08.892Z,93.10
2019-04-04T21:11:37.464Z,93.10
2019-04-04T21:14:06.042Z,93.10
2019-04-04T21:16:34.603Z,93.10
2019-04-04T21:19:03.162Z,93.00
2019-04-04T21:21:32.087Z,93.00
2019-04-04T21:24:00.659Z,93.00
2019-04-04T21:26:29.227Z,93.10
2019-04-04T21:28:57.831Z,92.90
2019-04-04T21:31:26.393Z,93.00
2019-04-04T21:33:54.947Z,93.00
2019-04-04T21:36:23.522Z,93.10
2019-04-04T21:38:52.087Z,93.00
2019-04-04T21:41:20.661Z,93.00
2019-04-04T21:43:49.226Z,93.00
2019-04-04T21:46:17.802Z,93.10
2019-04-04T21:48:46.386Z,93.00
2019-04-04T21:51:15.275Z,93.00
2019-04-04T21:53:43.837Z,92.90
2019-04-04T21:56:12.395Z,93.00
2019-04-04T21:58:40.975Z,92.90
